Time;durP1;ratioP1;P1;durP2;ratioP2;P2;SDS_P1;SDS_P2;PMS_P1;PMS_P2;Temp;Humidity;BMP_temperature;BMP_pressure;BME280_temperature;BME280_humidity;BME280_pressure;Samples;Min_cycle;Max_cycle;Signal;HPM_P1;HPM_P2
2022/06/18 00:00:51;;;;;;;2.95;1.98;;;;;;;;;;5041048;28;20029;-74
2022/06/18 00:03:17;;;;;;;1.98;1.50;;;;;;;;;;5040558;28;20558;-73
2022/06/18 00:05:45;;;;;;;3.88;2.00;;;;;;;;;;5049894;28;20163;-73
2022/06/18 00:08:17;;;;;;;2.30;1.75;;;;;;;;;;5049393;28;20561;-74
2022/06/18 00:10:43;;;;;;;2.60;2.03;;;;;;;;;;5050034;28;20041;-74
2022/06/18 00:15:58;;;;;;;5.78;1.85;;;;;;;;;;5043017;28;20501;-74
2022/06/18 00:18:24;;;;;;;2.08;1.63;;;;;;;;;;5048144;28;20024;-74
2022/06/18 00:20:49;;;;;;;2.95;1.70;;;;;;;;;;5049857;28;20083;-74
2022/06/18 00:23:16;;;;;;;2.45;1.88;;;;;;;;;;5031714;28;20028;-74
2022/06/18 00:25:44;;;;;;;2.15;1.77;;;;;;;;;;5049361;28;20549;-74
2022/06/18 00:28:14;;;;;;;2.00;1.77;;;;;;;;;;5049663;28;20127;-74
2022/06/18 00:30:39;;;;;;;1.95;1.70;;;;;;;;;;5049780;28;20020;-74
2022/06/18 00:33:05;;;;;;;3.33;1.73;;;;;;;;;;5049005;28;20525;-74
2022/06/18 00:35:32;;;;;;;1.70;1.60;;;;;;;;;;5048933;28;20033;-74
2022/06/18 00:38:02;;;;;;;2.72;1.80;;;;;;;;;;5048853;28;20033;-74
2022/06/18 00:40:37;;;;;;;1.92;1.60;;;;;;;;;;5046867;28;20064;-74
2022/06/18 00:43:06;;;;;;;2.00;1.45;;;;;;;;;;5044432;28;20579;-74
2022/06/18 00:45:32;;;;;;;2.75;1.60;;;;;;;;;;5048513;28;20036;-74
2022/06/18 00:48:20;;;;;;;3.28;1.60;;;;;;;;;;5040633;28;20174;-74
2022/06/18 00:50:51;;;;;;;3.58;1.73;;;;;;;;;;5049056;28;20013;-74
2022/06/18 00:53:22;;;;;;;4.20;1.83;;;;;;;;;;5046445;28;20312;-74
2022/06/18 00:55:56;;;;;;;2.38;1.90;;;;;;;;;;5041037;28;20021;-74
2022/06/18 00:58:44;;;;;;;2.88;1.70;;;;;;;;;;5047699;28;20021;-74
2022/06/18 01:01:16;;;;;;;3.88;2.08;;;;;;;;;;5039029;28;20032;-74
2022/06/18 01:03:43;;;;;;;2.55;1.85;;;;;;;;;;5045828;28;20056;-74
2022/06/18 01:06:33;;;;;;;2.92;1.60;;;;;;;;;;5043349;28;20031;-74
2022/06/18 01:09:06;;;;;;;2.97;1.80;;;;;;;;;;5038676;28;20052;-73
2022/06/18 01:11:35;;;;;;;2.17;1.60;;;;;;;;;;5049306;28;20037;-73
2022/06/18 01:14:04;;;;;;;1.90;1.70;;;;;;;;;;5036261;28;20037;-73
2022/06/18 01:16:31;;;;;;;4.05;1.95;;;;;;;;;;5046526;28;20025;-73
2022/06/18 01:18:56;;;;;;;2.17;1.80;;;;;;;;;;5046363;28;20024;-73
2022/06/18 01:21:40;;;;;;;3.45;1.80;;;;;;;;;;5046770;28;20086;-73
2022/06/18 01:24:33;;;;;;;2.40;1.88;;;;;;;;;;5044066;28;20085;-73
2022/06/18 01:26:59;;;;;;;3.50;1.90;;;;;;;;;;5041064;28;20074;-74
2022/06/18 01:29:24;;;;;;;3.78;1.95;;;;;;;;;;5070705;22;20052;-78
2022/06/18 01:31:51;;;;;;;3.33;2.00;;;;;;;;;;5049481;28;20027;-79
2022/06/18 01:34:17;;;;;;;2.70;1.90;;;;;;;;;;5048805;28;20029;-79
2022/06/18 01:36:42;;;;;;;4.43;2.03;;;;;;;;;;5048083;28;20031;-76
2022/06/18 01:39:13;;;;;;;2.17;1.90;;;;;;;;;;5048627;28;20151;-77
2022/06/18 01:41:50;;;;;;;1.67;1.55;;;;;;;;;;5048333;28;20025;-79
2022/06/18 01:44:24;;;;;;;2.42;1.63;;;;;;;;;;5047320;28;20021;-79
2022/06/18 01:46:52;;;;;;;2.97;1.48;;;;;;;;;;5029466;28;20071;-78
2022/06/18 01:49:25;;;;;;;3.58;1.95;;;;;;;;;;5028848;28;20026;-77
2022/06/18 01:51:53;;;;;;;1.77;1.63;;;;;;;;;;5029902;28;20096;-78
2022/06/18 01:54:22;;;;;;;4.32;1.90;;;;;;;;;;5046747;28;20029;-78
2022/06/18 01:56:53;;;;;;;2.00;1.58;;;;;;;;;;5038856;28;20017;-78
2022/06/18 01:59:35;;;;;;;3.20;1.60;;;;;;;;;;5043637;28;20024;-79
2022/06/18 02:02:03;;;;;;;4.57;1.67;;;;;;;;;;5039422;28;20024;-79
2022/06/18 02:04:28;;;;;;;3.90;1.85;;;;;;;;;;5047710;28;20025;-78
2022/06/18 02:06:54;;;;;;;2.28;2.05;;;;;;;;;;5047290;28;20025;-79
2022/06/18 02:09:36;;;;;;;2.80;2.00;;;;;;;;;;5047875;28;20021;-79
2022/06/18 02:12:04;;;;;;;3.75;1.92;;;;;;;;;;5047437;28;20708;-78
2022/06/18 02:14:31;;;;;;;2.28;1.85;;;;;;;;;;5040060;28;20037;-79
2022/06/18 02:16:58;;;;;;;2.85;2.00;;;;;;;;;;5048148;28;20033;-78
2022/06/18 02:19:23;;;;;;;2.30;2.10;;;;;;;;;;5047361;28;20498;-79
2022/06/18 02:21:54;;;;;;;4.28;1.70;;;;;;;;;;5048830;28;20215;-79
2022/06/18 02:24:19;;;;;;;2.67;2.05;;;;;;;;;;5048773;28;20386;-80
2022/06/18 02:26:46;;;;;;;2.47;2.05;;;;;;;;;;5045195;28;20025;-78
2022/06/18 02:29:18;;;;;;;4.10;1.70;;;;;;;;;;5044061;28;20033;-79
2022/06/18 02:31:45;;;;;;;3.63;1.80;;;;;;;;;;5047605;28;20029;-78
2022/06/18 02:34:20;;;;;;;3.60;1.88;;;;;;;;;;5047103;28;20617;-79
2022/06/18 02:36:47;;;;;;;2.08;1.60;;;;;;;;;;5048109;28;20417;-79
2022/06/18 02:39:24;;;;;;;2.10;1.75;;;;;;;;;;5045575;28;20055;-80
2022/06/18 02:41:58;;;;;;;2.08;1.60;;;;;;;;;;5046420;28;20021;-79
2022/06/18 02:44:24;;;;;;;1.85;1.70;;;;;;;;;;5043204;28;20106;-78
2022/06/18 02:46:49;;;;;;;2.05;1.58;;;;;;;;;;5048959;28;20060;-78
2022/06/18 02:49:15;;;;;;;2.10;1.90;;;;;;;;;;5046811;28;20091;-78
2022/06/18 02:51:41;;;;;;;2.22;1.67;;;;;;;;;;5045772;28;20092;-78
2022/06/18 02:54:06;;;;;;;5.13;2.00;;;;;;;;;;5035707;28;20120;-78
2022/06/18 02:56:32;;;;;;;1.95;1.75;;;;;;;;;;5049035;28;20397;-79
2022/06/18 02:58:57;;;;;;;3.15;2.08;;;;;;;;;;5050095;28;20024;-78
2022/06/18 03:01:25;;;;;;;3.80;1.70;;;;;;;;;;5051065;28;20476;-79
2022/06/18 03:03:55;;;;;;;2.00;1.73;;;;;;;;;;5048619;28;20129;-77
2022/06/18 03:06:23;;;;;;;5.78;2.10;;;;;;;;;;5049570;28;20433;-78
2022/06/18 03:08:49;;;;;;;4.45;2.03;;;;;;;;;;5047043;28;20025;-77
2022/06/18 03:14:01;;;;;;;3.35;1.80;;;;;;;;;;5045231;28;20039;-79
2022/06/18 03:16:28;;;;;;;2.53;1.63;;;;;;;;;;5048207;28;20024;-79
2022/06/18 03:18:56;;;;;;;2.53;1.85;;;;;;;;;;5049397;28;20028;-78
2022/06/18 03:21:41;;;;;;;2.55;1.75;;;;;;;;;;5051618;28;20032;-79
2022/06/18 03:24:07;;;;;;;3.15;1.90;;;;;;;;;;5049810;28;20118;-78
2022/06/18 03:26:35;;;;;;;5.78;1.70;;;;;;;;;;5050008;28;20016;-78
2022/06/18 03:29:01;;;;;;;4.07;1.80;;;;;;;;;;5050466;28;20048;-77
2022/06/18 03:31:26;;;;;;;3.78;1.67;;;;;;;;;;5051268;28;20473;-78
2022/06/18 03:33:51;;;;;;;2.00;1.80;;;;;;;;;;5049312;28;20024;-78
2022/06/18 03:36:18;;;;;;;4.82;2.03;;;;;;;;;;5050782;28;20596;-78
2022/06/18 03:38:44;;;;;;;5.18;2.00;;;;;;;;;;5050451;28;20521;-77
2022/06/18 03:41:11;;;;;;;3.05;1.90;;;;;;;;;;5050828;28;20032;-77
2022/06/18 03:43:36;;;;;;;2.85;2.00;;;;;;;;;;5048765;28;20158;-78
2022/06/18 03:46:08;;;;;;;4.20;2.40;;;;;;;;;;5052686;28;20096;-78
2022/06/18 03:49:00;;;;;;;3.65;2.10;;;;;;;;;;5070377;28;20031;-76
2022/06/18 03:51:26;;;;;;;1.98;1.70;;;;;;;;;;5070787;28;20039;-74
2022/06/18 03:53:52;;;;;;;3.85;2.15;;;;;;;;;;5042496;28;20032;-76
2022/06/18 03:56:21;;;;;;;3.00;1.90;;;;;;;;;;5050142;28;20131;-77
2022/06/18 03:58:47;;;;;;;2.83;1.98;;;;;;;;;;5046497;28;20400;-77
2022/06/18 04:01:16;;;;;;;6.47;2.30;;;;;;;;;;5042560;28;20082;-77
2022/06/18 04:03:41;;;;;;;2.63;1.92;;;;;;;;;;5049200;28;20094;-78
2022/06/18 04:06:09;;;;;;;5.75;2.63;;;;;;;;;;5053349;28;20029;-79
2022/06/18 04:08:34;;;;;;;3.35;2.30;;;;;;;;;;5049211;28;20036;-78
2022/06/18 04:10:59;;;;;;;2.65;2.03;;;;;;;;;;5053187;28;20020;-79
2022/06/18 04:13:28;;;;;;;3.58;1.95;;;;;;;;;;5050215;28;20091;-79
2022/06/18 04:15:53;;;;;;;3.25;1.80;;;;;;;;;;5044488;28;20048;-79
2022/06/18 04:18:18;;;;;;;2.25;2.00;;;;;;;;;;5052172;28;20479;-79
2022/06/18 04:20:44;;;;;;;2.25;1.63;;;;;;;;;;5052484;28;20033;-78
2022/06/18 04:23:11;;;;;;;2.50;1.92;;;;;;;;;;5047588;28;20375;-77
2022/06/18 04:25:37;;;;;;;2.10;1.90;;;;;;;;;;5048746;28;20172;-78
2022/06/18 04:28:03;;;;;;;4.55;2.20;;;;;;;;;;5044063;28;20052;-79
2022/06/18 04:30:30;;;;;;;4.32;2.92;;;;;;;;;;5050762;28;20395;-79
2022/06/18 04:32:56;;;;;;;4.68;3.53;;;;;;;;;;5050878;28;20036;-78
2022/06/18 04:35:22;;;;;;;3.58;2.92;;;;;;;;;;5053254;28;20036;-79
2022/06/18 04:37:48;;;;;;;4.43;2.58;;;;;;;;;;5043569;28;20025;-79
2022/06/18 04:40:18;;;;;;;4.15;2.20;;;;;;;;;;5043220;28;20028;-78
2022/06/18 04:42:43;;;;;;;2.92;2.10;;;;;;;;;;5042497;28;20044;-78
2022/06/18 04:45:09;;;;;;;2.25;2.08;;;;;;;;;;5051381;28;20106;-79
2022/06/18 04:47:35;;;;;;;3.28;1.92;;;;;;;;;;5044133;28;20104;-79
2022/06/18 04:50:01;;;;;;;4.38;1.80;;;;;;;;;;5052595;28;20048;-78
2022/06/18 04:52:26;;;;;;;2.53;1.98;;;;;;;;;;5046866;28;20032;-78
2022/06/18 04:54:54;;;;;;;4.38;3.22;;;;;;;;;;5052354;28;20078;-78
2022/06/18 04:57:20;;;;;;;7.28;4.30;;;;;;;;;;5053550;28;20031;-79
2022/06/18 04:59:46;;;;;;;5.63;3.30;;;;;;;;;;5051478;28;20028;-79
2022/06/18 05:02:22;;;;;;;3.10;2.78;;;;;;;;;;5041818;28;20041;-80
2022/06/18 05:04:48;;;;;;;3.45;2.95;;;;;;;;;;5049972;28;20036;-78
2022/06/18 05:07:13;;;;;;;4.68;2.45;;;;;;;;;;5043367;28;20025;-79
2022/06/18 05:09:38;;;;;;;3.45;1.88;;;;;;;;;;5049273;28;20443;-79
2022/06/18 05:12:04;;;;;;;5.05;2.50;;;;;;;;;;5046548;28;20024;-78
2022/06/18 05:14:30;;;;;;;2.60;1.90;;;;;;;;;;5047766;28;20090;-79
2022/06/18 05:16:57;;;;;;;3.88;2.10;;;;;;;;;;5049306;28;20020;-78
2022/06/18 05:19:25;;;;;;;2.65;2.15;;;;;;;;;;5048987;28;20024;-80
2022/06/18 05:21:51;;;;;;;3.83;2.47;;;;;;;;;;5048154;28;20517;-79
2022/06/18 05:24:17;;;;;;;2.90;2.10;;;;;;;;;;5044175;28;20021;-79
2022/06/18 05:26:47;;;;;;;3.60;2.22;;;;;;;;;;5051094;28;20112;-79
2022/06/18 05:29:13;;;;;;;5.68;2.30;;;;;;;;;;5052088;28;20104;-79
2022/06/18 05:31:38;;;;;;;2.63;2.20;;;;;;;;;;5048433;28;20171;-78
2022/06/18 05:34:03;;;;;;;3.13;1.80;;;;;;;;;;5049959;28;20025;-79
2022/06/18 05:36:30;;;;;;;5.35;2.28;;;;;;;;;;5051487;28;20060;-79
2022/06/18 05:38:57;;;;;;;3.17;1.90;;;;;;;;;;5053230;28;20356;-79
2022/06/18 05:41:23;;;;;;;3.08;2.20;;;;;;;;;;5049275;28;20393;-78
2022/06/18 05:43:49;;;;;;;5.03;2.20;;;;;;;;;;5051233;28;20029;-78
2022/06/18 05:46:14;;;;;;;2.70;2.08;;;;;;;;;;5050566;28;20047;-78
2022/06/18 05:48:39;;;;;;;2.85;2.20;;;;;;;;;;5050143;28;20033;-79
2022/06/18 05:51:05;;;;;;;3.97;2.25;;;;;;;;;;5050232;28;20311;-79
2022/06/18 05:53:30;;;;;;;4.82;2.20;;;;;;;;;;5049002;28;20040;-80
2022/06/18 05:55:56;;;;;;;2.47;2.10;;;;;;;;;;5050087;28;20033;-78
2022/06/18 05:58:21;;;;;;;2.22;2.03;;;;;;;;;;5048850;28;20488;-78
2022/06/18 06:00:46;;;;;;;5.18;2.35;;;;;;;;;;5050185;28;20024;-78
2022/06/18 06:03:11;;;;;;;2.60;2.10;;;;;;;;;;5051615;28;20029;-78
2022/06/18 06:05:37;;;;;;;3.15;2.10;;;;;;;;;;5054194;28;20013;-79
2022/06/18 06:08:02;;;;;;;2.90;2.08;;;;;;;;;;5054100;28;20413;-78
2022/06/18 06:13:17;;;;;;;4.32;2.08;;;;;;;;;;5051280;28;20222;-78
2022/06/18 06:15:42;;;;;;;2.88;1.92;;;;;;;;;;5050238;28;20036;-78
2022/06/18 06:18:10;;;;;;;3.03;1.88;;;;;;;;;;5052016;28;20084;-79
2022/06/18 06:20:40;;;;;;;2.90;1.90;;;;;;;;;;5049031;28;20048;-78
2022/06/18 06:23:06;;;;;;;1.73;1.63;;;;;;;;;;5049152;28;20053;-78
2022/06/18 06:25:32;;;;;;;1.92;1.83;;;;;;;;;;5048541;28;20104;-79
2022/06/18 06:27:57;;;;;;;2.92;1.60;;;;;;;;;;5050202;28;20045;-79
2022/06/18 06:30:23;;;;;;;2.83;2.10;;;;;;;;;;5053426;28;20071;-78
2022/06/18 06:32:48;;;;;;;1.95;1.75;;;;;;;;;;5051690;28;20040;-79
2022/06/18 06:35:14;;;;;;;4.18;3.10;;;;;;;;;;5053991;28;20056;-78
2022/06/18 06:37:40;;;;;;;3.95;2.00;;;;;;;;;;5047383;28;20072;-80
2022/06/18 06:40:06;;;;;;;2.58;1.80;;;;;;;;;;5051558;28;20304;-79
2022/06/18 06:42:42;;;;;;;4.43;1.92;;;;;;;;;;5055830;28;20123;-79
2022/06/18 06:45:11;;;;;;;4.10;1.80;;;;;;;;;;5053107;28;20031;-78
2022/06/18 06:47:36;;;;;;;4.25;2.00;;;;;;;;;;5053107;28;20025;-78
2022/06/18 06:50:02;;;;;;;2.83;1.95;;;;;;;;;;5053731;28;20448;-79
2022/06/18 06:52:27;;;;;;;2.22;1.98;;;;;;;;;;5053417;28;20033;-79
2022/06/18 06:57:21;;;;;;;3.38;2.17;;;;;;;;;;5052635;28;20068;-79
2022/06/18 06:57:41;;;;;;;2.75;1.80;;;;;;;;;;5053491;28;20103;-79
2022/06/18 07:00:07;;;;;;;2.30;1.80;;;;;;;;;;5052742;28;20136;-79
2022/06/18 07:02:33;;;;;;;2.78;1.70;;;;;;;;;;5055542;28;20016;-78
2022/06/18 07:04:58;;;;;;;3.17;1.67;;;;;;;;;;5053553;28;20021;-79
2022/06/18 07:07:23;;;;;;;2.03;1.55;;;;;;;;;;5053463;28;20021;-79
2022/06/18 07:09:48;;;;;;;1.90;1.73;;;;;;;;;;5052783;28;20474;-78
2022/06/18 07:12:14;;;;;;;3.67;1.80;;;;;;;;;;5053262;28;20028;-79
2022/06/18 07:14:39;;;;;;;3.28;1.80;;;;;;;;;;5053007;28;20314;-79
2022/06/18 07:17:04;;;;;;;1.95;1.77;;;;;;;;;;5053230;28;20025;-79
2022/06/18 07:19:30;;;;;;;3.30;1.77;;;;;;;;;;5052471;28;20111;-79
2022/06/18 07:21:55;;;;;;;3.58;1.70;;;;;;;;;;5053629;28;20419;-77
2022/06/18 07:24:21;;;;;;;3.85;1.50;;;;;;;;;;5052049;28;20020;-77
2022/06/18 07:26:47;;;;;;;4.55;1.55;;;;;;;;;;5052150;28;20082;-78
2022/06/18 07:29:13;;;;;;;3.45;1.60;;;;;;;;;;5061728;22;20433;-75
2022/06/18 07:31:39;;;;;;;3.33;1.50;;;;;;;;;;5030529;28;20064;-75
2022/06/18 07:34:06;;;;;;;2.13;1.58;;;;;;;;;;5030383;28;20045;-75
2022/06/18 07:36:32;;;;;;;2.53;1.65;;;;;;;;;;5030249;28;20033;-75
2022/06/18 07:39:01;;;;;;;2.03;1.38;;;;;;;;;;5028928;28;20037;-74
2022/06/18 07:41:35;;;;;;;4.28;1.50;;;;;;;;;;5030136;28;20025;-75
2022/06/18 07:44:01;;;;;;;1.55;1.40;;;;;;;;;;5030131;28;20030;-75
2022/06/18 07:46:26;;;;;;;2.35;1.60;;;;;;;;;;5029942;28;20334;-75
2022/06/18 07:48:51;;;;;;;2.67;1.40;;;;;;;;;;5029802;28;20037;-75
2022/06/18 07:51:17;;;;;;;3.70;1.40;;;;;;;;;;5029912;28;20086;-76
2022/06/18 07:53:43;;;;;;;4.65;1.60;;;;;;;;;;5028500;28;20080;-76
2022/06/18 07:56:08;;;;;;;2.55;1.20;;;;;;;;;;5029923;28;20037;-76
2022/06/18 07:58:34;;;;;;;2.10;1.52;;;;;;;;;;5030232;28;20108;-75
2022/06/18 08:00:59;;;;;;;3.00;1.40;;;;;;;;;;5030416;28;20037;-76
2022/06/18 08:03:25;;;;;;;3.60;1.42;;;;;;;;;;5030568;28;20025;-76
2022/06/18 08:05:52;;;;;;;1.65;1.40;;;;;;;;;;5030370;28;20064;-77
2022/06/18 08:08:17;;;;;;;1.25;1.05;;;;;;;;;;5029564;28;20040;-77
2022/06/18 08:10:49;;;;;;;2.33;1.30;;;;;;;;;;5029678;28;20025;-75
2022/06/18 08:13:14;;;;;;;1.42;1.33;;;;;;;;;;5029677;28;20255;-75
2022/06/18 08:15:40;;;;;;;1.40;1.02;;;;;;;;;;5029641;28;20034;-75
2022/06/18 08:18:05;;;;;;;4.57;1.10;;;;;;;;;;5029526;28;20043;-75
2022/06/18 08:20:31;;;;;;;4.50;1.45;;;;;;;;;;5029606;28;20032;-75
2022/06/18 08:22:59;;;;;;;1.67;1.20;;;;;;;;;;5029716;28;20029;-75
2022/06/18 08:25:27;;;;;;;3.95;1.20;;;;;;;;;;5028585;28;20025;-75
2022/06/18 08:27:55;;;;;;;1.20;1.10;;;;;;;;;;5029307;28;20033;-73
2022/06/18 08:30:20;;;;;;;2.63;1.08;;;;;;;;;;5029773;28;20044;-75
2022/06/18 08:32:46;;;;;;;2.85;1.20;;;;;;;;;;5029424;28;20479;-74
2022/06/18 08:35:12;;;;;;;1.67;1.10;;;;;;;;;;5029525;28;20033;-74
2022/06/18 08:37:38;;;;;;;1.50;1.20;;;;;;;;;;5028812;28;20449;-72
2022/06/18 08:40:35;;;;;;;2.33;1.20;;;;;;;;;;5028903;28;20029;-71
2022/06/18 08:43:22;;;;;;;2.05;0.90;;;;;;;;;;5029340;28;20033;-72
2022/06/18 08:46:09;;;;;;;1.70;1.10;;;;;;;;;;5026082;28;20291;-72
2022/06/18 08:48:46;;;;;;;2.75;1.30;;;;;;;;;;5028700;28;20022;-74
2022/06/18 08:51:31;;;;;;;1.58;1.20;;;;;;;;;;5032504;28;20032;-74
2022/06/18 08:54:18;;;;;;;1.48;1.20;;;;;;;;;;5028969;28;20053;-75
2022/06/18 08:56:50;;;;;;;2.25;0.93;;;;;;;;;;5029092;28;20091;-75
2022/06/18 08:59:44;;;;;;;2.13;1.10;;;;;;;;;;5025274;28;20079;-74
2022/06/18 09:02:24;;;;;;;1.27;1.17;;;;;;;;;;5028120;28;20104;-75
2022/06/18 09:04:52;;;;;;;2.75;1.65;;;;;;;;;;5006731;28;20036;-75
2022/06/18 09:07:36;;;;;;;1.98;1.00;;;;;;;;;;5008168;28;20038;-75
2022/06/18 09:10:29;;;;;;;1.85;1.00;;;;;;;;;;5045339;28;20494;-74
2022/06/18 09:13:08;;;;;;;4.90;1.27;;;;;;;;;;5045911;28;20489;-75
2022/06/18 09:15:44;;;;;;;1.95;1.20;;;;;;;;;;5044219;28;20032;-77
2022/06/18 09:18:15;;;;;;;3.53;1.33;;;;;;;;;;5027577;28;20037;-75
2022/06/18 09:20:46;;;;;;;3.65;1.00;;;;;;;;;;5023735;28;20442;-76
2022/06/18 09:23:17;;;;;;;2.30;1.30;;;;;;;;;;5028497;28;20613;-76
2022/06/18 09:25:45;;;;;;;4.97;1.25;;;;;;;;;;5029835;28;20088;-75
2022/06/18 09:28:20;;;;;;;2.15;1.20;;;;;;;;;;5028395;28;20029;-76
2022/06/18 09:30:50;;;;;;;2.83;1.30;;;;;;;;;;5029402;28;20025;-75
2022/06/18 09:33:24;;;;;;;3.72;1.15;;;;;;;;;;5027135;28;20056;-75
2022/06/18 09:36:12;;;;;;;1.85;1.20;;;;;;;;;;5020148;28;20029;-75
2022/06/18 09:38:47;;;;;;;3.90;1.45;;;;;;;;;;5028074;28;20111;-76
2022/06/18 09:41:25;;;;;;;2.00;1.00;;;;;;;;;;5025440;28;20039;-75
2022/06/18 09:44:28;;;;;;;2.28;1.10;;;;;;;;;;5031520;28;20018;-74
2022/06/18 09:47:01;;;;;;;2.83;1.20;;;;;;;;;;5034008;28;20034;-74
2022/06/18 09:49:28;;;;;;;1.80;1.30;;;;;;;;;;5027982;28;20332;-73
2022/06/18 09:52:06;;;;;;;2.63;1.30;;;;;;;;;;5028112;28;20508;-72
2022/06/18 09:54:54;;;;;;;3.10;1.38;;;;;;;;;;5028210;28;20411;-72
2022/06/18 09:57:23;;;;;;;3.63;1.40;;;;;;;;;;5048240;28;20017;-72
2022/06/18 10:00:13;;;;;;;1.48;1.20;;;;;;;;;;5027742;28;20367;-72
2022/06/18 10:02:43;;;;;;;1.67;1.10;;;;;;;;;;5027309;28;20065;-76
2022/06/18 10:08:03;;;;;;;3.40;1.33;;;;;;;;;;5035586;28;20035;-74
2022/06/18 10:10:29;;;;;;;1.88;1.20;;;;;;;;;;5031684;28;20049;-73
2022/06/18 10:12:59;;;;;;;2.13;1.10;;;;;;;;;;5032003;28;20052;-74
2022/06/18 10:15:26;;;;;;;2.63;1.10;;;;;;;;;;5030318;28;20037;-73
2022/06/18 10:18:32;;;;;;;1.40;1.30;;;;;;;;;;5031655;28;20029;-71
2022/06/18 10:21:14;;;;;;;2.58;1.10;;;;;;;;;;5024826;28;20403;-72
2022/06/18 10:23:51;;;;;;;2.97;1.08;;;;;;;;;;5030685;28;20033;-71
2022/06/18 10:26:45;;;;;;;3.00;1.48;;;;;;;;;;5031560;28;20021;-72
2022/06/18 10:29:26;;;;;;;4.80;1.20;;;;;;;;;;5024682;28;20095;-71
2022/06/18 10:32:47;;;;;;;2.38;1.10;;;;;;;;;;5023231;28;20085;-71
2022/06/18 10:35:38;;;;;;;2.50;1.13;;;;;;;;;;4948277;28;20440;-72
2022/06/18 10:38:59;;;;;;;2.83;1.27;;;;;;;;;;5023377;28;20168;-72
2022/06/18 10:41:39;;;;;;;2.80;1.20;;;;;;;;;;4989529;28;20487;-71
2022/06/18 10:44:27;;;;;;;1.83;1.30;;;;;;;;;;5023097;28;20028;-72
2022/06/18 10:47:07;;;;;;;1.33;1.15;;;;;;;;;;5022646;28;20033;-72
2022/06/18 10:49:32;;;;;;;3.40;1.38;;;;;;;;;;5029221;28;20075;-72
2022/06/18 10:51:59;;;;;;;1.58;1.20;;;;;;;;;;5029788;28;20517;-71
2022/06/18 10:54:30;;;;;;;1.38;1.17;;;;;;;;;;5026762;28;20029;-71
2022/06/18 10:56:58;;;;;;;2.63;1.10;;;;;;;;;;5029263;28;20055;-71
2022/06/18 10:59:41;;;;;;;1.55;1.05;;;;;;;;;;5029284;28;20025;-71
2022/06/18 11:02:12;;;;;;;2.33;1.30;;;;;;;;;;5029298;28;20029;-71
2022/06/18 11:04:39;;;;;;;1.33;1.20;;;;;;;;;;5027898;28;20026;-71
2022/06/18 11:07:07;;;;;;;2.45;1.55;;;;;;;;;;5027918;28;20155;-72
2022/06/18 11:09:38;;;;;;;1.73;1.35;;;;;;;;;;5021883;28;20757;-71
2022/06/18 11:12:18;;;;;;;4.30;1.38;;;;;;;;;;5029538;28;20064;-71
2022/06/18 11:14:44;;;;;;;2.97;1.25;;;;;;;;;;5024977;28;20429;-71
2022/06/18 11:17:28;;;;;;;1.42;1.25;;;;;;;;;;5027362;28;20030;-71
2022/06/18 11:19:54;;;;;;;2.75;1.35;;;;;;;;;;5026294;28;20128;-71
2022/06/18 11:22:26;;;;;;;4.63;1.52;;;;;;;;;;5029603;28;20457;-71
2022/06/18 11:24:57;;;;;;;3.05;1.77;;;;;;;;;;5019871;28;20025;-72
2022/06/18 11:27:23;;;;;;;4.43;1.58;;;;;;;;;;5024705;28;20143;-72
2022/06/18 11:29:52;;;;;;;6.57;1.45;;;;;;;;;;4991682;28;1017684;-71
2022/06/18 11:32:21;;;;;;;3.03;1.48;;;;;;;;;;5028144;28;20029;-70
2022/06/18 11:35:06;;;;;;;3.40;1.27;;;;;;;;;;5028589;28;20030;-71
2022/06/18 11:37:32;;;;;;;4.65;1.52;;;;;;;;;;5027218;28;20034;-71
2022/06/18 11:40:05;;;;;;;5.97;1.77;;;;;;;;;;5028364;28;20032;-71
2022/06/18 11:42:34;;;;;;;2.78;1.65;;;;;;;;;;5030099;28;20398;-71
2022/06/18 11:45:17;;;;;;;4.10;1.55;;;;;;;;;;5041926;28;20484;-70
2022/06/18 11:47:58;;;;;;;3.90;1.70;;;;;;;;;;5009842;28;20034;-70
2022/06/18 11:50:38;;;;;;;3.17;1.33;;;;;;;;;;5027035;28;20112;-71
2022/06/18 11:53:03;;;;;;;4.93;1.70;;;;;;;;;;5029613;28;20021;-70
2022/06/18 11:55:36;;;;;;;2.97;1.63;;;;;;;;;;5028714;28;20021;-71
2022/06/18 11:58:10;;;;;;;4.10;1.80;;;;;;;;;;5029638;28;20332;-70
2022/06/18 12:01:13;;;;;;;5.20;1.77;;;;;;;;;;5028177;28;20037;-72
2022/06/18 12:03:53;;;;;;;4.70;1.65;;;;;;;;;;5027644;28;20029;-73
2022/06/18 12:06:37;;;;;;;4.93;1.52;;;;;;;;;;5029076;28;20415;-73
2022/06/18 12:09:02;;;;;;;5.28;1.90;;;;;;;;;;5028910;28;20034;-73
2022/06/18 12:11:47;;;;;;;5.03;1.70;;;;;;;;;;5028338;28;20083;-74
2022/06/18 12:14:28;;;;;;;6.90;2.10;;;;;;;;;;5022966;28;20034;-73
2022/06/18 12:17:19;;;;;;;7.55;2.08;;;;;;;;;;5020362;28;20021;-74
2022/06/18 12:19:44;;;;;;;;;;;;;;;;;;5041655;28;20540;-74
2022/06/18 12:22:19;;;;;;;6.47;1.90;;;;;;;;;;5048520;28;19913;-74
2022/06/18 12:25:42;;;;;;;7.55;2.10;;;;;;;;;;5033504;28;20099;-73
2022/06/18 12:28:13;;;;;;;7.82;2.00;;;;;;;;;;5031615;28;20043;-74
2022/06/18 12:30:47;;;;;;;8.00;2.20;;;;;;;;;;5028774;28;20032;-75
2022/06/18 12:33:42;;;;;;;7.15;2.20;;;;;;;;;;5048459;28;20037;-72
2022/06/18 12:36:33;;;;;;;5.80;1.60;;;;;;;;;;5026995;28;20029;-74
2022/06/18 12:39:14;;;;;;;10.57;2.17;;;;;;;;;;5018245;28;20045;-72
2022/06/18 12:41:43;;;;;;;;;;;;;;;;;;5029446;28;20025;-71
2022/06/18 12:44:38;;;;;;;5.90;2.08;;;;;;;;;;5037659;28;20071;-73
2022/06/18 12:47:20;;;;;;;11.48;2.15;;;;;;;;;;5023519;28;20041;-73
2022/06/18 12:49:57;;;;;;;12.10;2.75;;;;;;;;;;5028753;28;20429;-72
2022/06/18 12:52:22;;;;;;;8.43;2.40;;;;;;;;;;5028778;28;20403;-74
2022/06/18 12:54:59;;;;;;;9.10;2.40;;;;;;;;;;5028787;28;20021;-74
2022/06/18 12:57:58;;;;;;;9.48;2.15;;;;;;;;;;5028711;28;20025;-73
2022/06/18 13:00:58;;;;;;;10.45;2.38;;;;;;;;;;5026962;28;20017;-71
2022/06/18 13:03:40;;;;;;;9.93;2.08;;;;;;;;;;5023344;28;20295;-74
2022/06/18 13:06:13;;;;;;;11.18;2.13;;;;;;;;;;5008913;28;20118;-72
2022/06/18 13:09:12;;;;;;;6.43;2.20;;;;;;;;;;5018133;28;20017;-74
2022/06/18 13:11:57;;;;;;;9.43;2.03;;;;;;;;;;5029137;28;20220;-74
2022/06/18 13:14:40;;;;;;;15.60;2.85;;;;;;;;;;5027333;28;20029;-74
2022/06/18 13:17:11;;;;;;;7.82;2.20;;;;;;;;;;5022037;28;20375;-70
2022/06/18 13:19:40;;;;;;;9.88;2.47;;;;;;;;;;5027491;28;20526;-72
2022/06/18 13:22:06;;;;;;;8.07;2.33;;;;;;;;;;5024680;28;20053;-74
2022/06/18 13:30:50;;;;;;;7.45;1.95;;;;;;;;;;5071327;22;20055;-77
2022/06/18 13:33:18;;;;;;;7.95;2.03;;;;;;;;;;5047490;28;20032;-78
2022/06/18 13:35:58;;;;;;;11.93;2.63;;;;;;;;;;5046243;28;20029;-83
2022/06/18 13:38:46;;;;;;;11.80;2.67;;;;;;;;;;5047617;28;20040;-77
2022/06/18 13:41:27;;;;;;;7.95;2.50;;;;;;;;;;5041680;28;20146;-76
2022/06/18 13:44:15;;;;;;;12.43;2.50;;;;;;;;;;5041577;28;20476;-78
2022/06/18 13:46:58;;;;;;;12.50;2.70;;;;;;;;;;5049166;28;20040;-81
2022/06/18 13:49:36;;;;;;;11.48;2.20;;;;;;;;;;5049858;28;20032;-80
2022/06/18 13:52:05;;;;;;;7.03;2.30;;;;;;;;;;5046163;28;20025;-78
2022/06/18 13:54:43;;;;;;;9.55;2.85;;;;;;;;;;5050072;28;20029;-79
2022/06/18 13:57:10;;;;;;;11.43;2.58;;;;;;;;;;5047740;28;20022;-80
2022/06/18 13:59:39;;;;;;;9.27;2.50;;;;;;;;;;5048653;28;20043;-77
2022/06/18 14:02:20;;;;;;;7.60;2.42;;;;;;;;;;5048949;28;20052;-77
2022/06/18 14:04:46;;;;;;;16.65;2.80;;;;;;;;;;5047609;28;20025;-76
2022/06/18 14:07:15;;;;;;;9.93;2.47;;;;;;;;;;5049551;28;20426;-77
2022/06/18 14:09:47;;;;;;;9.45;2.13;;;;;;;;;;5049798;28;20044;-79
2022/06/18 14:12:21;;;;;;;10.25;2.45;;;;;;;;;;5049284;28;20021;-75
2022/06/18 14:14:47;;;;;;;11.02;2.25;;;;;;;;;;5048372;28;20025;-76
2022/06/18 14:17:16;;;;;;;11.38;2.30;;;;;;;;;;5049344;28;20021;-76
2022/06/18 14:19:55;;;;;;;7.78;2.50;;;;;;;;;;5048405;28;20041;-74
2022/06/18 14:22:24;;;;;;;11.25;2.42;;;;;;;;;;5046767;28;20506;-78
2022/06/18 14:24:54;;;;;;;9.65;2.17;;;;;;;;;;5046466;28;20116;-78
2022/06/18 14:27:42;;;;;;;10.70;2.47;;;;;;;;;;5047760;28;20087;-76
2022/06/18 14:30:20;;;;;;;11.73;2.70;;;;;;;;;;5036719;28;20037;-76
2022/06/18 14:32:58;;;;;;;12.52;2.08;;;;;;;;;;5048870;28;20074;-77
2022/06/18 14:35:27;;;;;;;16.15;2.85;;;;;;;;;;5046680;28;20032;-77
2022/06/18 14:37:52;;;;;;;10.07;2.80;;;;;;;;;;5048116;28;20029;-79
2022/06/18 14:40:30;;;;;;;13.20;3.38;;;;;;;;;;5046760;28;20021;-76
2022/06/18 14:43:13;;;;;;;13.65;2.60;;;;;;;;;;5048276;28;20469;-77
2022/06/18 14:45:39;;;;;;;16.00;3.40;;;;;;;;;;5045752;28;20025;-78
2022/06/18 14:48:09;;;;;;;18.03;2.97;;;;;;;;;;5047734;28;20025;-76
2022/06/18 14:51:03;;;;;;;10.70;2.53;;;;;;;;;;5051520;28;20307;-76
2022/06/18 14:53:37;;;;;;;12.88;2.75;;;;;;;;;;5051893;28;20040;-76
2022/06/18 14:56:49;;;;;;;7.38;2.78;;;;;;;;;;5051713;28;20578;-76
2022/06/18 14:59:34;;;;;;;;;;;;;;;;;;5028410;28;20048;-78
2022/06/18 15:02:36;;;;;;;9.75;2.38;;;;;;;;;;5051203;28;19939;-78
2022/06/18 15:05:03;;;;;;;13.77;3.08;;;;;;;;;;5037583;28;20044;-77
2022/06/18 15:07:35;;;;;;;13.32;2.90;;;;;;;;;;5051376;28;20031;-78
2022/06/18 15:10:11;;;;;;;17.10;3.10;;;;;;;;;;5050142;28;20498;-77
2022/06/18 15:12:37;;;;;;;15.07;3.25;;;;;;;;;;5052336;28;20029;-78
2022/06/18 15:15:07;;;;;;;14.38;2.90;;;;;;;;;;5049292;28;20029;-77
2022/06/18 15:17:48;;;;;;;14.57;2.88;;;;;;;;;;5051014;28;20095;-78
2022/06/18 15:26:14;;;;;;;13.02;2.75;;;;;;;;;;5048399;28;20041;-76
2022/06/18 15:28:41;;;;;;;12.68;3.28;;;;;;;;;;5051420;28;20139;-77
2022/06/18 15:31:31;;;;;;;13.48;2.70;;;;;;;;;;5046442;28;20029;-77
2022/06/18 15:33:58;;;;;;;11.73;2.67;;;;;;;;;;5049180;28;20021;-77
2022/06/18 15:36:29;;;;;;;10.82;3.10;;;;;;;;;;5043373;28;20471;-76